This is the latest recevied weather packets stored in our database for station/object CT7BNL-13. If no packets are shown the sender has not sent any weather packets the latest 10 day(s).
| Time | Temp. | Humidity | Pressure | Rain* | Wind** | Luminosity | Snow |
|---|---|---|---|---|---|---|---|
| 1788347966 | 27.78° C | 52% | 1028.2 hPa | 0 mm | - | 777 W/m² | - |
| 1788347065 | 27.78° C | 51% | 1028.2 hPa | 0 mm | - | 757 W/m² | - |
| 1788346166 | 27.22° C | 56% | 1028.2 hPa | 0 mm | - | 733 W/m² | - |
| 1788345266 | 25° C | 61% | 1028.3 hPa | 0 mm | - | 705 W/m² | - |
| 1788344367 | 25° C | 60% | 1028.4 hPa | 0 mm | - | 675 W/m² | - |
| 1788343465 | 24.44° C | 61% | 1028.3 hPa | 0 mm | - | 634 W/m² | - |
| 1788342565 | 23.89° C | 63% | 1028.3 hPa | 0 mm | - | 588 W/m² | - |
| 1788341667 | 22.78° C | 69% | 1028.2 hPa | 0 mm | - | 546 W/m² | - |
| 1788340766 | 21.67° C | 73% | 1028.1 hPa | 0 mm | - | 514 W/m² | - |
| 1788339866 | 21.11° C | 73% | 1028.4 hPa | 0 mm | - | 270 W/m² | - |
| 1788338967 | 20° C | 78% | 1028.1 hPa | 0 mm | - | 273 W/m² | - |
| 1788338065 | 18.89° C | 81% | 1028.1 hPa | 0 mm | - | 247 W/m² | - |
| 1788337165 | 17.78° C | 86% | 1028.1 hPa | 0 mm | - | 187 W/m² | - |
| 1788336265 | 16.67° C | 90% | 1028.2 hPa | 0 mm | - | 140 W/m² | - |
| 1788335366 | 15° C | 97% | 1027.9 hPa | 0 mm | - | 115 W/m² | - |
| 1788334465 | 13.89° C | 97% | 1028 hPa | 0 mm | - | 99 W/m² | - |
| 1788333566 | 13.33° C | 97% | 1027.9 hPa | 0 mm | - | 44 W/m² | - |
| 1788332665 | 13.33° C | 97% | 1027.5 hPa | 0 mm | - | 38 W/m² | - |
| 1788331765 | 12.78° C | 97% | 1027.3 hPa | 0 mm | - | 41 W/m² | - |
| 1788330865 | 12.78° C | 97% | 1027.7 hPa | 0 mm | - | 24 W/m² | - |
| 1788329965 | 12.78° C | 97% | 1027.3 hPa | 0 mm | - | 14 W/m² | - |
| 1788329065 | 12.78° C | 97% | 1027.2 hPa | 0 mm | - | 5 W/m² | - |
| 1788328166 | 12.78° C | 97% | 1027.1 hPa | 0 mm | - | 0 W/m² | - |
| 1788326365 | 13.33° C | 97% | 1026.8 hPa | 0 mm | - | 0 W/m² | - |
| 1788325465 | 13.33° C | 97% | 1026.8 hPa | 0 mm | - | 0 W/m² | - |
* Rain latest hour (hover to see other rain measurements)
** Current wind speed in m/s (hover to see current wind gust speed)